Time;durP1;ratioP1;P1;durP2;ratioP2;P2;SDS_P1;SDS_P2;PMS_P1;PMS_P2;Temp;Humidity;BMP_temperature;BMP_pressure;BME280_temperature;BME280_humidity;BME280_pressure;Samples;Min_cycle;Max_cycle;Signal;HPM_P1;HPM_P2
2024/01/31 00:00:56;;;;;;;16.80;12.50;;;;;7.40;102868.00;;;;12657545;22;20233;-78
2024/01/31 00:05:58;;;;;;;19.10;12.90;;;;;7.40;102860.00;;;;12697813;23;20211;-78
2024/01/31 00:11:01;;;;;;;14.67;11.87;;;;;7.40;102867.00;;;;12725628;23;20218;-78
2024/01/31 00:16:03;;;;;;;20.23;12.70;;;;;7.40;102868.00;;;;12656807;23;20199;-78
2024/01/31 00:21:05;;;;;;;15.73;13.17;;;;;7.30;102867.00;;;;12680807;23;20938;-78
2024/01/31 00:26:07;;;;;;;16.70;12.50;;;;;7.30;102862.00;;;;12654756;23;20196;-78
2024/01/31 00:31:11;;;;;;;16.20;13.33;;;;;7.30;102870.00;;;;12678820;23;20207;-78
2024/01/31 00:36:14;;;;;;;17.57;12.93;;;;;7.30;102871.00;;;;12626478;23;20203;-78
2024/01/31 00:41:16;;;;;;;19.37;14.13;;;;;7.30;102882.00;;;;12649891;23;20312;-78
2024/01/31 00:46:18;;;;;;;20.43;14.33;;;;;7.30;102885.00;;;;12647946;23;20196;-78
2024/01/31 00:51:20;;;;;;;18.30;13.50;;;;;7.30;102901.00;;;;12624735;23;20202;-78
2024/01/31 00:56:22;;;;;;;21.53;14.17;;;;;7.30;102890.00;;;;12648145;23;20245;-78
2024/01/31 01:01:24;;;;;;;21.57;14.93;;;;;7.20;102904.00;;;;12675432;23;20219;-78
2024/01/31 01:06:26;;;;;;;19.23;14.67;;;;;7.10;102901.00;;;;12628916;23;20257;-78
2024/01/31 01:11:31;;;;;;;24.57;15.93;;;;;7.00;102908.00;;;;12654198;23;20278;-79
2024/01/31 01:16:33;;;;;;;23.87;18.40;;;;;6.90;102903.00;;;;12654157;23;20873;-79
2024/01/31 01:21:36;;;;;;;27.37;18.93;;;;;6.90;102906.00;;;;12630470;23;20249;-78
2024/01/31 01:26:41;;;;;;;25.13;17.53;;;;;6.80;102900.00;;;;12655459;23;20257;-79
2024/01/31 01:31:43;;;;;;;24.83;17.53;;;;;6.80;102907.00;;;;12678020;23;20565;-79
2024/01/31 01:36:45;;;;;;;28.60;18.43;;;;;6.80;102910.00;;;;12655751;22;20192;-78
2024/01/31 01:41:50;;;;;;;24.57;17.83;;;;;6.70;102896.00;;;;12654664;23;20203;-78
2024/01/31 01:46:52;;;;;;;26.10;17.77;;;;;6.70;102900.00;;;;12655203;23;20226;-78
2024/01/31 01:51:54;;;;;;;26.07;16.83;;;;;6.70;102895.00;;;;12657815;23;20268;-79
2024/01/31 01:56:57;;;;;;;21.90;16.07;;;;;6.60;102902.00;;;;12679296;23;20248;-79
2024/01/31 02:02:00;;;;;;;22.77;13.53;;;;;6.60;102902.00;;;;12654935;23;20214;-76
2024/01/31 02:07:03;;;;;;;27.70;15.13;;;;;6.60;102905.00;;;;12631564;23;20198;-82
2024/01/31 02:12:05;;;;;;;23.30;16.00;;;;;6.60;102904.00;;;;12708502;23;20878;-82
2024/01/31 02:17:08;;;;;;;24.83;14.13;;;;;6.60;102915.00;;;;12639265;23;20226;-82
2024/01/31 02:22:20;;;;;;;24.10;15.00;;;;;6.60;102913.00;;;;12652455;23;20203;-82
2024/01/31 02:27:22;;;;;;;24.17;15.70;;;;;6.60;102896.00;;;;12677461;23;20200;-83
2024/01/31 02:32:23;;;;;;;25.60;14.80;;;;;6.60;102898.00;;;;12655409;23;20209;-82
2024/01/31 02:37:25;;;;;;;29.67;14.50;;;;;6.60;102898.00;;;;12656465;23;20870;-81
2024/01/31 02:42:27;;;;;;;23.90;14.53;;;;;6.60;102900.00;;;;12683268;23;20278;-83
2024/01/31 02:47:29;;;;;;;24.07;13.80;;;;;6.60;102900.00;;;;12635038;23;20195;-83
2024/01/31 02:52:31;;;;;;;23.03;13.33;;;;;6.70;102909.00;;;;12656472;23;20200;-82
2024/01/31 02:57:34;;;;;;;26.67;13.43;;;;;6.60;102896.00;;;;12656341;23;20207;-82
2024/01/31 03:02:43;;;;;;;26.83;13.93;;;;;6.60;102886.00;;;;12656523;23;20279;-81
2024/01/31 03:07:45;;;;;;;28.50;14.97;;;;;6.70;102884.00;;;;12632448;23;20265;-82
2024/01/31 03:12:47;;;;;;;32.40;14.20;;;;;6.70;102875.00;;;;12656660;23;20576;-81
2024/01/31 03:17:49;;;;;;;23.53;13.93;;;;;6.70;102880.00;;;;12669099;23;20214;-80
2024/01/31 03:22:50;;;;;;;27.27;13.53;;;;;6.70;102883.00;;;;12697839;23;20175;-81
2024/01/31 03:27:53;;;;;;;34.97;14.40;;;;;6.70;102876.00;;;;12671126;23;20195;-81
2024/01/31 03:32:55;;;;;;;27.53;14.53;;;;;6.70;102875.00;;;;12680293;23;20347;-82
2024/01/31 03:37:57;;;;;;;28.23;14.23;;;;;6.70;102874.00;;;;12680553;23;20528;-81
2024/01/31 03:42:58;;;;;;;26.37;15.23;;;;;6.70;102870.00;;;;12654372;23;20195;-81
2024/01/31 03:48:01;;;;;;;29.20;14.77;;;;;6.70;102853.00;;;;12705303;23;20230;-81
2024/01/31 03:53:03;;;;;;;34.93;16.87;;;;;6.70;102859.00;;;;12679865;23;20245;-81
2024/01/31 03:58:05;;;;;;;30.47;16.07;;;;;6.70;102851.00;;;;12679930;23;20253;-82
2024/01/31 04:03:06;;;;;;;32.50;16.80;;;;;6.70;102835.00;;;;12656421;23;20972;-80
2024/01/31 04:08:08;;;;;;;29.30;15.83;;;;;6.70;102849.00;;;;12679216;23;20206;-81
2024/01/31 04:13:10;;;;;;;30.00;15.33;;;;;6.70;102847.00;;;;12654525;23;20249;-81
2024/01/31 04:18:13;;;;;;;33.77;15.30;;;;;6.70;102844.00;;;;12655754;23;20200;-82
2024/01/31 04:23:15;;;;;;;33.83;17.40;;;;;6.70;102846.00;;;;12653744;23;20195;-81
2024/01/31 04:28:18;;;;;;;33.30;16.67;;;;;6.60;102850.00;;;;12680041;23;20195;-78
2024/01/31 04:33:22;;;;;;;34.50;17.47;;;;;6.60;102858.00;;;;12654488;23;20204;-78
2024/01/31 04:38:24;;;;;;;35.33;17.47;;;;;6.60;102869.00;;;;12655508;23;20215;-78
2024/01/31 04:43:26;;;;;;;31.73;16.73;;;;;6.60;102865.00;;;;12627369;23;20208;-80
2024/01/31 04:48:28;;;;;;;33.57;17.10;;;;;6.70;102861.00;;;;12674180;23;20199;-79
2024/01/31 04:53:30;;;;;;;38.73;17.97;;;;;6.60;102856.00;;;;12655024;23;20206;-79
2024/01/31 04:58:32;;;;;;;31.03;16.20;;;;;6.60;102859.00;;;;12631104;23;20200;-80
2024/01/31 05:03:34;;;;;;;34.97;16.80;;;;;6.60;102851.00;;;;12704485;23;20196;-78
2024/01/31 05:08:36;;;;;;;35.43;17.97;;;;;6.60;102859.00;;;;12679478;23;20615;-79
2024/01/31 05:13:38;;;;;;;31.80;17.00;;;;;6.60;102865.00;;;;12654593;23;20222;-79
2024/01/31 05:18:40;;;;;;;32.17;15.97;;;;;6.60;102843.00;;;;12654709;23;20198;-78
2024/01/31 05:23:42;;;;;;;42.13;16.97;;;;;6.60;102843.00;;;;12628833;23;20286;-78
2024/01/31 05:28:44;;;;;;;34.67;16.90;;;;;6.60;102835.00;;;;12677593;23;20214;-78
2024/01/31 05:33:46;;;;;;;41.40;19.07;;;;;6.60;102823.00;;;;12653027;23;20210;-80
2024/01/31 05:38:49;;;;;;;38.17;19.33;;;;;6.60;102836.00;;;;12679693;23;20199;-82
2024/01/31 05:43:51;;;;;;;45.20;22.10;;;;;6.60;102832.00;;;;12655534;23;20627;-82
2024/01/31 05:48:53;;;;;;;43.30;21.73;;;;;6.60;102839.00;;;;12655192;23;20199;-82
2024/01/31 05:53:55;;;;;;;48.80;26.40;;;;;6.60;102835.00;;;;12630122;23;20191;-83
2024/01/31 05:58:57;;;;;;;50.10;26.23;;;;;6.60;102833.00;;;;12677988;23;20261;-82
2024/01/31 06:03:58;;;;;;;53.40;26.47;;;;;6.60;102829.00;;;;12678739;23;20199;-83
2024/01/31 06:09:01;;;;;;;50.10;28.57;;;;;6.60;102831.00;;;;12683166;23;20241;-83
2024/01/31 06:14:03;;;;;;;49.10;26.73;;;;;6.60;102842.00;;;;12678450;23;20200;-83
2024/01/31 06:19:05;;;;;;;54.93;29.73;;;;;6.60;102846.00;;;;12677277;23;20204;-83
2024/01/31 06:24:07;;;;;;;47.87;28.47;;;;;6.60;102844.00;;;;12680905;23;20199;-82
2024/01/31 06:29:10;;;;;;;51.10;27.27;;;;;6.60;102836.00;;;;12676561;23;20225;-81
2024/01/31 06:34:12;;;;;;;47.40;27.63;;;;;6.60;102844.00;;;;12715390;23;20179;-82
2024/01/31 06:39:14;;;;;;;52.27;27.37;;;;;6.70;102842.00;;;;12735012;23;20206;-82
2024/01/31 06:44:16;;;;;;;53.20;29.40;;;;;6.70;102828.00;;;;12697595;23;20208;-77
2024/01/31 06:49:18;;;;;;;54.97;29.07;;;;;6.70;102833.00;;;;12677336;23;20195;-79
2024/01/31 06:54:20;;;;;;;52.33;30.03;;;;;6.70;102826.00;;;;12678921;23;20204;-76
2024/01/31 06:59:22;;;;;;;45.80;28.47;;;;;6.70;102823.00;;;;12656097;23;20222;-78
2024/01/31 07:04:24;;;;;;;54.73;31.43;;;;;6.70;102822.00;;;;12704823;23;20203;-76
2024/01/31 07:09:29;;;;;;;53.90;29.23;;;;;6.70;102829.00;;;;12655997;23;20508;-77
2024/01/31 07:14:31;;;;;;;48.90;29.30;;;;;6.70;102843.00;;;;12631876;23;20207;-77
2024/01/31 07:19:32;;;;;;;49.60;28.33;;;;;6.70;102850.00;;;;12654497;23;20219;-76
2024/01/31 07:24:34;;;;;;;46.60;26.37;;;;;6.70;102866.00;;;;12632579;23;20528;-78
2024/01/31 07:29:36;;;;;;;44.30;25.97;;;;;6.70;102875.00;;;;12656237;23;20230;-77
2024/01/31 07:34:38;;;;;;;41.83;23.80;;;;;6.70;102890.00;;;;12656273;23;20732;-77
2024/01/31 07:39:40;;;;;;;36.50;22.63;;;;;6.70;102890.00;;;;12632167;23;20204;-77
2024/01/31 07:44:42;;;;;;;41.57;22.87;;;;;6.80;102903.00;;;;12631515;23;20241;-78
2024/01/31 07:49:45;;;;;;;37.07;22.37;;;;;6.80;102901.00;;;;12654637;23;20219;-76
2024/01/31 07:54:47;;;;;;;40.40;22.53;;;;;6.80;102874.00;;;;12656277;23;20200;-82
2024/01/31 07:59:49;;;;;;;33.47;21.63;;;;;6.90;102859.00;;;;12655577;23;20198;-82
2024/01/31 08:04:51;;;;;;;42.73;23.57;;;;;6.90;102858.00;;;;12655409;23;20523;-81
2024/01/31 08:09:53;;;;;;;40.53;25.77;;;;;7.00;102860.00;;;;12655385;23;20245;-81
2024/01/31 08:14:55;;;;;;;39.27;23.30;;;;;7.00;102865.00;;;;12655302;23;20219;-82
2024/01/31 08:19:56;;;;;;;38.33;22.17;;;;;7.00;102865.00;;;;12678908;23;20196;-81
2024/01/31 08:24:59;;;;;;;37.57;24.03;;;;;7.10;102871.00;;;;12654983;23;20815;-82
2024/01/31 08:30:01;;;;;;;39.83;22.60;;;;;7.10;102876.00;;;;12654531;23;20195;-81
2024/01/31 08:35:03;;;;;;;37.67;22.93;;;;;7.20;102874.00;;;;12679884;23;20191;-81
2024/01/31 08:40:08;;;;;;;35.63;23.13;;;;;7.30;102883.00;;;;12655083;23;20875;-81
2024/01/31 08:45:13;;;;;;;30.93;16.40;;;;;7.30;102874.00;;;;12655322;23;20245;-81
2024/01/31 08:50:15;;;;;;;28.40;18.60;;;;;7.30;102883.00;;;;12678354;23;20282;-82
2024/01/31 08:55:17;;;;;;;29.70;18.13;;;;;7.40;102883.00;;;;12654858;23;20188;-81
2024/01/31 09:00:19;;;;;;;24.23;14.57;;;;;7.40;102867.00;;;;12655672;23;20570;-81
2024/01/31 09:05:21;;;;;;;22.40;12.60;;;;;7.40;102865.00;;;;12679072;23;20245;-76
2024/01/31 09:10:25;;;;;;;10.77;8.63;;;;;7.50;102859.00;;;;12703790;23;20199;-78
2024/01/31 09:15:27;;;;;;;12.47;8.67;;;;;7.50;102852.00;;;;12654410;23;20204;-78
2024/01/31 09:20:29;;;;;;;10.97;7.53;;;;;7.60;102855.00;;;;12629947;23;20727;-78
2024/01/31 09:25:31;;;;;;;14.33;8.70;;;;;7.70;102841.00;;;;12654397;23;20245;-78
2024/01/31 09:30:33;;;;;;;12.40;8.20;;;;;7.70;102829.00;;;;12653866;23;20195;-78
2024/01/31 09:35:35;;;;;;;15.77;8.57;;;;;7.70;102814.00;;;;12653509;23;20207;-79
2024/01/31 09:40:36;;;;;;;12.67;8.97;;;;;7.80;102800.00;;;;12652625;23;20195;-79
2024/01/31 09:45:40;;;;;;;9.70;7.07;;;;;8.00;102808.00;;;;12656570;23;20188;-79
2024/01/31 09:50:42;;;;;;;8.90;4.80;;;;;8.10;102793.00;;;;12690316;23;20179;-79
2024/01/31 09:55:44;;;;;;;6.97;4.60;;;;;8.20;102805.00;;;;12709029;23;20206;-80
2024/01/31 10:00:46;;;;;;;6.90;4.10;;;;;8.20;102809.00;;;;12633701;23;20259;-79
2024/01/31 10:05:53;;;;;;;7.77;5.10;;;;;8.20;102810.00;;;;12706211;23;20196;-80
2024/01/31 10:10:55;;;;;;;7.17;4.90;;;;;8.30;102803.00;;;;12680383;23;20200;-80
2024/01/31 10:15:58;;;;;;;5.00;3.90;;;;;8.40;102799.00;;;;12634298;23;20249;-78
2024/01/31 10:21:01;;;;;;;9.23;5.70;;;;;8.30;102809.00;;;;12655556;23;20527;-79
2024/01/31 10:26:04;;;;;;;17.83;6.93;;;;;8.20;102821.00;;;;12679603;23;20188;-79
2024/01/31 10:31:09;;;;;;;8.20;4.33;;;;;8.20;102823.00;;;;12655111;23;20226;-79
2024/01/31 10:36:13;;;;;;;5.60;3.80;;;;;8.20;102820.00;;;;12758098;23;20202;-78
2024/01/31 10:41:20;;;;;;;4.33;3.90;;;;;8.20;102829.00;;;;12706403;23;20203;-78
2024/01/31 10:46:22;;;;;;;8.67;3.73;;;;;8.20;102828.00;;;;12656529;23;20196;-78
2024/01/31 10:51:24;;;;;;;8.50;3.23;;;;;8.10;102817.00;;;;12631353;23;20195;-79
2024/01/31 10:56:27;;;;;;;5.90;3.03;;;;;8.10;102812.00;;;;12654117;23;20979;-78
2024/01/31 11:01:30;;;;;;;5.83;2.60;;;;;8.30;102816.00;;;;12651169;23;20207;-79
2024/01/31 11:06:41;;;;;;;5.67;3.67;;;;;8.60;102819.00;;;;12668258;23;20238;-80
2024/01/31 11:11:44;;;;;;;5.23;2.63;;;;;8.80;102818.00;;;;12630063;23;20196;-78
2024/01/31 11:16:46;;;;;;;2.90;2.40;;;;;8.80;102814.00;;;;12705190;23;20200;-79
2024/01/31 11:21:48;;;;;;;6.20;2.67;;;;;8.90;102815.00;;;;12655104;23;20200;-78
2024/01/31 11:26:51;;;;;;;4.57;2.40;;;;;9.20;102798.00;;;;12654621;23;20233;-79
2024/01/31 11:31:54;;;;;;;2.20;1.70;;;;;9.20;102785.00;;;;12654480;23;20227;-79
2024/01/31 11:36:55;;;;;;;4.63;2.00;;;;;9.20;102787.00;;;;12655536;23;20282;-80
2024/01/31 11:41:57;;;;;;;4.37;2.53;;;;;9.30;102762.00;;;;12677824;23;20218;-79
2024/01/31 11:47:00;;;;;;;3.43;1.80;;;;;9.50;102769.00;;;;12654941;23;20635;-80
2024/01/31 11:52:03;;;;;;;3.80;1.47;;;;;9.60;102749.00;;;;12629513;23;20195;-79
2024/01/31 11:57:08;;;;;;;3.63;1.67;;;;;9.60;102731.00;;;;12653855;23;20217;-81
2024/01/31 12:02:10;;;;;;;3.27;2.03;;;;;9.70;102713.00;;;;12652739;23;20199;-80
2024/01/31 12:07:12;;;;;;;4.97;1.63;;;;;9.80;102715.00;;;;12660672;23;20219;-79
2024/01/31 12:12:14;;;;;;;3.67;1.90;;;;;9.90;102709.00;;;;12700200;23;20519;-83
2024/01/31 12:17:24;;;;;;;4.23;1.77;;;;;9.90;102708.00;;;;12634349;23;20191;-80
2024/01/31 12:22:26;;;;;;;3.70;1.93;;;;;9.90;102699.00;;;;12681076;23;20203;-79
2024/01/31 12:27:28;;;;;;;7.13;1.90;;;;;10.00;102700.00;;;;12672658;23;20566;-80
2024/01/31 12:32:30;;;;;;;6.67;2.30;;;;;9.90;102687.00;;;;12678366;23;20210;-79
2024/01/31 12:37:33;;;;;;;4.83;1.70;;;;;9.90;102694.00;;;;12678899;23;20206;-80
2024/01/31 12:42:35;;;;;;;4.73;2.37;;;;;9.90;102689.00;;;;12654505;23;20248;-81
2024/01/31 12:47:39;;;;;;;5.30;1.97;;;;;9.90;102685.00;;;;12652388;23;20195;-81
2024/01/31 12:52:41;;;;;;;6.13;2.20;;;;;10.10;102670.00;;;;12655734;23;20206;-79
2024/01/31 12:57:43;;;;;;;4.10;2.50;;;;;10.20;102666.00;;;;12667060;23;20226;-79
2024/01/31 13:02:45;;;;;;;6.10;2.47;;;;;10.10;102659.00;;;;12704433;23;20227;-81
2024/01/31 13:07:47;;;;;;;6.30;1.90;;;;;10.10;102657.00;;;;12681184;23;20199;-81
2024/01/31 13:12:49;;;;;;;5.03;2.33;;;;;9.90;102667.00;;;;12678504;23;20207;-80
2024/01/31 13:17:51;;;;;;;7.43;2.50;;;;;9.90;102667.00;;;;12630325;23;20856;-80
2024/01/31 13:22:53;;;;;;;11.53;3.13;;;;;9.80;102654.00;;;;12629647;23;20624;-81
2024/01/31 13:27:55;;;;;;;6.60;2.10;;;;;9.90;102642.00;;;;12654400;23;20203;-81
2024/01/31 13:32:58;;;;;;;5.33;2.60;;;;;10.10;102626.00;;;;12653938;23;20227;-80
2024/01/31 13:38:00;;;;;;;7.90;2.50;;;;;9.90;102632.00;;;;12678478;23;20199;-81
2024/01/31 13:43:02;;;;;;;5.23;2.30;;;;;10.00;102611.00;;;;12654527;23;20191;-81
2024/01/31 13:48:05;;;;;;;5.47;2.00;;;;;10.10;102598.00;;;;12654292;23;20196;-81
2024/01/31 13:53:09;;;;;;;9.60;3.10;;;;;10.10;102591.00;;;;12696899;23;20219;-82
2024/01/31 13:58:11;;;;;;;8.43;2.00;;;;;10.10;102585.00;;;;12676988;23;20787;-81
2024/01/31 14:03:13;;;;;;;4.30;1.77;;;;;10.00;102566.00;;;;12652939;23;20199;-82
2024/01/31 14:08:15;;;;;;;5.63;1.60;;;;;10.00;102564.00;;;;12630773;23;20199;-82
2024/01/31 14:13:17;;;;;;;8.60;5.27;;;;;9.90;102563.00;;;;12652104;23;20197;-79
2024/01/31 14:18:19;;;;;;;7.73;2.33;;;;;9.90;102564.00;;;;12650787;23;20840;-79
2024/01/31 14:23:27;;;;;;;4.80;2.43;;;;;9.90;102559.00;;;;12631709;23;20210;-79
2024/01/31 14:28:44;;;;;;;10.57;2.50;;;;;10.10;102554.00;;;;12656306;23;20193;-79
2024/01/31 14:33:46;;;;;;;6.00;3.90;;;;;10.10;102548.00;;;;12653697;23;20249;-83
2024/01/31 14:38:48;;;;;;;6.57;2.40;;;;;10.10;102521.00;;;;12630546;23;20209;-79
2024/01/31 14:43:50;;;;;;;3.10;2.07;;;;;10.80;102463.00;;;;12631680;22;20188;-78
2024/01/31 14:48:52;;;;;;;5.30;2.57;;;;;11.40;102469.00;;;;12677712;23;20681;-80
2024/01/31 14:53:54;;;;;;;3.53;2.53;;;;;11.20;102472.00;;;;12655530;23;20222;-82
2024/01/31 14:58:56;;;;;;;4.10;2.63;;;;;10.10;102463.00;;;;12655867;23;20194;-81
2024/01/31 15:03:58;;;;;;;5.43;2.60;;;;;9.70;102476.00;;;;12631747;23;20188;-82
2024/01/31 15:09:01;;;;;;;6.20;2.60;;;;;9.50;102485.00;;;;12631278;23;20199;-81
2024/01/31 15:14:04;;;;;;;3.80;2.13;;;;;9.20;102489.00;;;;12629443;23;20195;-82
2024/01/31 15:19:06;;;;;;;3.00;2.33;;;;;8.90;102490.00;;;;12626607;23;20202;-81
2024/01/31 15:24:09;;;;;;;5.57;2.50;;;;;8.80;102486.00;;;;12627538;23;20206;-81
2024/01/31 15:29:11;;;;;;;5.93;2.50;;;;;8.80;102482.00;;;;12627953;23;20196;-81
2024/01/31 15:34:13;;;;;;;5.50;2.50;;;;;8.70;102487.00;;;;12628816;23;20898;-82
2024/01/31 15:39:16;;;;;;;5.03;2.30;;;;;8.70;102492.00;;;;12627077;23;20202;-80
2024/01/31 15:44:21;;;;;;;3.30;2.07;;;;;8.60;102475.00;;;;12625880;23;20221;-81
2024/01/31 15:49:28;;;;;;;4.73;2.27;;;;;8.60;102470.00;;;;12624673;23;20192;-83
2024/01/31 15:54:33;;;;;;;8.30;2.60;;;;;8.60;102481.00;;;;12627547;23;20204;-82
2024/01/31 15:59:35;;;;;;;4.53;2.13;;;;;8.50;102487.00;;;;12650788;23;20580;-81
2024/01/31 16:04:37;;;;;;;4.10;2.40;;;;;8.40;102485.00;;;;12650421;23;20203;-80
2024/01/31 16:09:42;;;;;;;6.90;2.53;;;;;8.40;102471.00;;;;12625349;23;20191;-79
2024/01/31 16:14:44;;;;;;;5.53;2.70;;;;;8.40;102479.00;;;;12674002;23;20200;-81
2024/01/31 16:19:46;;;;;;;5.30;2.70;;;;;8.40;102466.00;;;;12627386;23;20195;-81
2024/01/31 16:24:49;;;;;;;5.47;2.60;;;;;8.30;102455.00;;;;12644165;23;20708;-78
2024/01/31 16:29:53;;;;;;;8.13;2.90;;;;;8.30;102460.00;;;;12606963;23;20201;-80
2024/01/31 16:34:56;;;;;;;7.07;3.50;;;;;8.30;102448.00;;;;12644183;23;20203;-81
2024/01/31 16:39:59;;;;;;;8.00;2.87;;;;;8.30;102445.00;;;;12650645;23;20570;-81
2024/01/31 16:45:01;;;;;;;5.07;3.20;;;;;8.20;102427.00;;;;12674856;23;20256;-79
2024/01/31 16:50:04;;;;;;;8.50;2.70;;;;;8.20;102426.00;;;;12651916;23;20192;-81
2024/01/31 16:55:07;;;;;;;10.17;3.47;;;;;8.20;102403.00;;;;12621363;23;20749;-79
2024/01/31 17:00:09;;;;;;;5.93;3.07;;;;;8.20;102392.00;;;;12629803;23;20195;-79
2024/01/31 17:05:11;;;;;;;5.73;3.30;;;;;8.10;102377.00;;;;12656802;23;20192;-79
2024/01/31 17:10:13;;;;;;;3.60;2.67;;;;;8.10;102383.00;;;;12679519;23;20761;-80
2024/01/31 17:15:15;;;;;;;8.20;3.70;;;;;8.10;102381.00;;;;12630755;23;20279;-83
2024/01/31 17:20:18;;;;;;;7.17;3.70;;;;;8.10;102371.00;;;;12680128;23;20199;-83
2024/01/31 17:25:23;;;;;;;6.03;3.10;;;;;8.10;102378.00;;;;12630227;23;20196;-82
2024/01/31 17:30:25;;;;;;;7.17;3.40;;;;;8.10;102386.00;;;;12654197;23;20192;-83
2024/01/31 17:35:27;;;;;;;4.87;3.53;;;;;8.00;102385.00;;;;12629956;23;20208;-83
2024/01/31 17:40:29;;;;;;;4.87;3.77;;;;;8.00;102374.00;;;;12654851;23;20636;-82
2024/01/31 17:45:32;;;;;;;5.17;3.70;;;;;7.90;102400.00;;;;12653680;23;20249;-83
2024/01/31 17:50:34;;;;;;;5.33;3.83;;;;;8.00;102393.00;;;;12654428;23;20250;-83
2024/01/31 17:55:36;;;;;;;6.83;4.40;;;;;8.00;102385.00;;;;12631518;23;20571;-82
2024/01/31 18:00:38;;;;;;;4.43;4.03;;;;;8.00;102393.00;;;;12672398;23;20216;-83
2024/01/31 18:05:40;;;;;;;6.13;4.53;;;;;7.90;102400.00;;;;12658837;23;20199;-84
2024/01/31 18:10:42;;;;;;;8.80;5.07;;;;;7.70;102373.00;;;;12656509;23;20523;-83
2024/01/31 18:15:44;;;;;;;8.47;4.67;;;;;7.50;102360.00;;;;12633052;23;20203;-82
2024/01/31 18:20:46;;;;;;;9.13;5.77;;;;;7.40;102368.00;;;;12631637;23;20274;-83
2024/01/31 18:25:48;;;;;;;11.60;6.07;;;;;7.30;102364.00;;;;12679971;23;20234;-83
2024/01/31 18:30:50;;;;;;;7.43;5.67;;;;;7.10;102359.00;;;;12652260;23;20192;-81
2024/01/31 18:35:52;;;;;;;9.10;5.83;;;;;7.10;102368.00;;;;12654357;23;20780;-81
2024/01/31 18:40:56;;;;;;;6.83;5.33;;;;;7.00;102352.00;;;;12656867;23;20855;-81
2024/01/31 18:45:58;;;;;;;8.50;5.90;;;;;7.00;102343.00;;;;12656426;23;20200;-82
2024/01/31 18:51:00;;;;;;;9.60;6.33;;;;;6.90;102341.00;;;;12656473;23;20996;-81
2024/01/31 18:56:03;;;;;;;7.13;4.80;;;;;6.90;102328.00;;;;12632315;23;20199;-81
2024/01/31 19:01:05;;;;;;;8.87;6.57;;;;;7.00;102332.00;;;;12656302;23;20708;-81
2024/01/31 19:06:07;;;;;;;9.97;6.43;;;;;7.00;102319.00;;;;12648287;23;20197;-80
2024/01/31 19:11:18;;;;;;;7.13;5.67;;;;;7.20;102301.00;;;;12740082;23;20183;-82
2024/01/31 19:16:20;;;;;;;8.17;5.33;;;;;7.30;102300.00;;;;12673691;23;20203;-82
2024/01/31 19:21:22;;;;;;;10.63;6.70;;;;;7.40;102294.00;;;;12656464;23;20203;-83
2024/01/31 19:26:25;;;;;;;7.53;5.87;;;;;7.40;102287.00;;;;12654433;23;20192;-82
2024/01/31 19:31:27;;;;;;;11.23;6.27;;;;;7.50;102276.00;;;;12655080;23;20212;-81
2024/01/31 19:36:30;;;;;;;10.90;6.27;;;;;7.50;102273.00;;;;12631181;23;20199;-81
2024/01/31 19:41:34;;;;;;;8.17;5.30;;;;;7.50;102259.00;;;;12655386;23;20199;-82
2024/01/31 19:46:38;;;;;;;8.37;5.53;;;;;7.50;102246.00;;;;12706388;23;20195;-82
2024/01/31 19:51:40;;;;;;;6.73;5.23;;;;;7.40;102252.00;;;;12656559;23;20195;-82
2024/01/31 19:56:42;;;;;;;9.83;5.50;;;;;7.50;102265.00;;;;12655469;23;20202;-79
2024/01/31 20:01:45;;;;;;;9.33;4.80;;;;;7.50;102259.00;;;;12631723;23;20191;-81
2024/01/31 20:06:47;;;;;;;9.03;4.37;;;;;7.60;102255.00;;;;12680892;23;20203;-82
2024/01/31 20:11:53;;;;;;;8.97;4.53;;;;;7.60;102229.00;;;;12632837;23;20199;-80
2024/01/31 20:16:55;;;;;;;14.37;5.90;;;;;7.70;102231.00;;;;12631921;23;20726;-82
2024/01/31 20:21:57;;;;;;;7.43;4.50;;;;;7.80;102216.00;;;;12618171;23;20207;-81
2024/01/31 20:26:59;;;;;;;8.07;5.00;;;;;7.80;102209.00;;;;12631339;23;20196;-81
2024/01/31 20:32:01;;;;;;;6.20;4.03;;;;;7.80;102195.00;;;;12653249;23;20771;-82
2024/01/31 20:37:03;;;;;;;12.20;3.97;;;;;7.90;102172.00;;;;12680401;23;20831;-81
2024/01/31 20:42:05;;;;;;;6.80;3.83;;;;;7.90;102182.00;;;;12632770;23;20775;-81
2024/01/31 20:47:08;;;;;;;7.03;4.07;;;;;8.00;102164.00;;;;12656044;23;20249;-82
2024/01/31 20:52:11;;;;;;;7.87;4.00;;;;;8.00;102182.00;;;;12631553;23;20245;-82
2024/01/31 20:57:13;;;;;;;6.87;4.23;;;;;8.00;102176.00;;;;12705855;23;20222;-82
2024/01/31 21:02:15;;;;;;;7.00;4.07;;;;;8.10;102167.00;;;;12680735;23;20604;-82
2024/01/31 21:07:17;;;;;;;7.40;4.33;;;;;8.10;102174.00;;;;12634072;23;20199;-81
2024/01/31 21:12:19;;;;;;;12.00;5.00;;;;;8.10;102165.00;;;;12678571;23;20877;-82
2024/01/31 21:17:21;;;;;;;8.80;4.40;;;;;8.10;102157.00;;;;12653919;23;20204;-81
2024/01/31 21:22:23;;;;;;;9.93;4.50;;;;;8.20;102152.00;;;;12655673;23;20192;-82
2024/01/31 21:27:25;;;;;;;7.90;5.00;;;;;8.20;102148.00;;;;12654817;23;20262;-81
2024/01/31 21:32:27;;;;;;;7.13;3.87;;;;;8.20;102143.00;;;;12653801;23;20279;-82
2024/01/31 21:37:29;;;;;;;9.53;4.30;;;;;8.30;102136.00;;;;12653961;23;20238;-83
2024/01/31 21:42:32;;;;;;;8.63;3.90;;;;;8.30;102141.00;;;;12655307;23;20257;-83
2024/01/31 21:47:34;;;;;;;11.33;3.90;;;;;8.30;102147.00;;;;12657533;23;20203;-81
2024/01/31 21:52:37;;;;;;;9.90;4.00;;;;;8.30;102114.00;;;;12634504;23;20664;-82
2024/01/31 21:57:39;;;;;;;7.70;3.93;;;;;8.40;102121.00;;;;12654729;23;20195;-81
2024/01/31 22:02:41;;;;;;;6.87;3.53;;;;;8.40;102135.00;;;;12677844;23;20186;-81
2024/01/31 22:07:43;;;;;;;7.27;4.00;;;;;8.50;102155.00;;;;12695389;23;20199;-83
2024/01/31 22:12:45;;;;;;;6.03;3.60;;;;;8.50;102151.00;;;;12701027;23;20196;-81
2024/01/31 22:17:47;;;;;;;6.43;3.67;;;;;8.50;102146.00;;;;12653679;23;20989;-82
2024/01/31 22:22:52;;;;;;;7.70;3.70;;;;;8.60;102144.00;;;;12653886;23;20195;-82
2024/01/31 22:27:54;;;;;;;10.43;3.80;;;;;8.60;102144.00;;;;12646733;23;20199;-81
2024/01/31 22:32:55;;;;;;;7.40;3.73;;;;;8.60;102156.00;;;;12651425;23;20195;-82
2024/01/31 22:37:58;;;;;;;11.33;4.53;;;;;8.60;102155.00;;;;12642142;23;20997;-82
2024/01/31 22:43:02;;;;;;;7.20;3.43;;;;;8.60;102140.00;;;;12628051;23;20523;-80
2024/01/31 22:48:06;;;;;;;7.10;4.20;;;;;8.60;102139.00;;;;12655073;23;20202;-80
2024/01/31 22:53:08;;;;;;;7.33;4.07;;;;;8.60;102131.00;;;;12676398;23;20570;-81
2024/01/31 22:58:11;;;;;;;6.60;3.93;;;;;8.70;102130.00;;;;12669312;23;20249;-82
2024/01/31 23:03:12;;;;;;;9.00;3.93;;;;;8.70;102128.00;;;;12628670;23;20199;-79
2024/01/31 23:08:15;;;;;;;6.43;4.03;;;;;8.70;102122.00;;;;12679932;23;20666;-83
2024/01/31 23:13:17;;;;;;;6.13;4.20;;;;;8.70;102103.00;;;;12655769;23;20270;-82
2024/01/31 23:18:18;;;;;;;8.07;4.10;;;;;8.70;102104.00;;;;12655708;23;20257;-83
2024/01/31 23:23:20;;;;;;;6.03;3.87;;;;;8.80;102095.00;;;;12656435;23;20202;-83
2024/01/31 23:28:22;;;;;;;9.13;4.60;;;;;8.80;102109.00;;;;12657594;23;20195;-82
2024/01/31 23:33:24;;;;;;;6.10;4.23;;;;;8.80;102100.00;;;;12655307;23;20222;-82
2024/01/31 23:38:26;;;;;;;7.37;4.40;;;;;8.80;102094.00;;;;12656293;23;20196;-82
2024/01/31 23:43:30;;;;;;;12.50;5.57;;;;;8.80;102102.00;;;;12656378;23;20716;-82
2024/01/31 23:48:32;;;;;;;8.07;4.33;;;;;8.80;102090.00;;;;12632376;23;20200;-82
2024/01/31 23:53:34;;;;;;;8.10;4.50;;;;;8.90;102103.00;;;;12632023;23;20211;-83
2024/01/31 23:58:36;;;;;;;13.23;5.50;;;;;8.90;102081.00;;;;12631072;23;20200;-82
